ADDS METAR Data INFO
IDs: Format: Raw Decoded Include TAF

Data at: 0707 UTC 19 Oct 2017

KGHB 190655Z AUTO 06017KT 10SM BKN021 BKN030 OVC036 25/22 A3010 RMK A01
KGHB 190635Z AUTO 07018KT 10SM SCT020 SCT026 BKN034 25/22 A3011 RMK A01
KGHB 190615Z AUTO 06016KT 10SM FEW022 SCT033 SCT041 25/21 A3011 RMK A01
KGHB 190555Z AUTO 07015KT 10SM BKN023 BKN029 BKN034 25/21 A3012 RMK A01
KGHB 190535Z AUTO 07015G20KT 10SM SCT023 BKN028 BKN034 25/21 A3012 RMK A01
KGHB 190515Z AUTO 07014G20KT 10SM BKN026 BKN034 26/21 A3012 RMK A01
KGHB 190455Z AUTO 07016KT 10SM BKN026 BKN033 BKN041 26/21 A3013 RMK A01
KGHB 190435Z AUTO 07015KT 10SM SCT032 BKN039 26/20 A3014 RMK A01
KGHB 190415Z AUTO 07014KT 10SM SCT030 SCT038 26/20 A3014 RMK A01
KGHB 190355Z AUTO 07014G20KT 10SM FEW033 SCT040 26/19 A3014 RMK A01
KGHB 190335Z AUTO 07013G19KT 10SM BKN033 BKN039 26/19 A3015 RMK A01
KGHB 190315Z AUTO 08015G21KT 10SM BKN034 BKN042 26/19 A3015 RMK A01
KGHB 190255Z AUTO 07015KT 10SM BKN035 OVC042 26/19 A3015 RMK A01
KGHB 190235Z AUTO 07013KT 10SM BKN034 OVC042 26/19 A3014 RMK A01
KGHB 190215Z AUTO 07013G19KT 10SM OVC036 26/19 A3014 RMK A01
KGHB 190155Z AUTO 08014KT 10SM BKN034 OVC041 26/19 A3014 RMK A01
KGHB 190135Z AUTO 06016KT 10SM BKN032 OVC041 26/19 A3013 RMK A01
KGHB 190115Z AUTO 06017KT 10SM BKN030 OVC038 26/20 A3013 RMK A01
KGHB 190055Z AUTO 06016KT 10SM BKN030 OVC036 26/20 A3012 RMK A01
KGHB 190035Z AUTO 06016KT 10SM FEW027 BKN034 OVC040 26/20 A3012 RMK A01
KGHB 190015Z AUTO 07014KT 10SM FEW029 SCT035 BKN041 26/21 A3011 RMK A01
KGHB 182355Z AUTO 07013KT 10SM CLR 26/20 A3010 RMK A01
KGHB 182335Z AUTO 06013KT 10SM FEW029 SCT034 SCT040 26/21 A3010 RMK A01
KGHB 182315Z AUTO 07013KT 10SM FEW028 SCT034 BKN041 26/21 A3010 RMK A01
KGHB 182255Z AUTO 06013G18KT 10SM SCT028 BKN037 BKN044 26/20 A3010 RMK A01
KGHB 182235Z AUTO 06014KT 10SM SCT028 BKN038 BKN044 27/21 A3009 RMK A01
KGHB 182215Z AUTO 06011KT 10SM SCT036 BKN042 27/20 A3009 RMK A01
KGHB 182155Z AUTO 06012KT 10SM FEW028 SCT035 BKN043 26/20 A3009 RMK A01
KGHB 182135Z AUTO 04016KT 10SM FEW020 SCT032 BKN042 26/22 A3009 RMK A01
KGHB 182115Z AUTO 05016KT 10SM FEW022 SCT029 BKN037 26/22 A3009 RMK A01
KGHB 182055Z AUTO 05016KT 10SM SCT022 BKN030 BKN035 26/22 A3010 RMK A01
KGHB 182035Z AUTO 06014KT 10SM SCT023 BKN032 BKN038 26/21 A3010 RMK A01
KGHB 182015Z AUTO 05015KT 10SM SCT023 BKN036 BKN046 26/22 A3010 RMK A01
KGHB 181955Z AUTO 06014KT 10SM FEW025 FEW036 26/21 A3011 RMK A01
KGHB 181935Z AUTO 06013KT 10SM FEW025 SCT033 BKN039 26/21 A3011 RMK A01
KGHB 181915Z AUTO 06012KT 10SM FEW026 SCT034 26/21 A3011 RMK A01
KGHB 181855Z AUTO 06013KT 10SM FEW026 SCT034 26/21 A3012 RMK A01
KGHB 181835Z AUTO 06015KT CLR 26/20 A3012 RMK A01
KGHB 181815Z AUTO 06013KT 10SM CLR 26/20 A3013 RMK A01
KGHB 181755Z AUTO 06013KT 10SM CLR 26/20 A3014 RMK A01
KGHB 181735Z AUTO 06012KT 10SM CLR 26/20 A3014 RMK A01
KGHB 181715Z AUTO 06010KT 10SM CLR 26/20 A3015 RMK A01
KGHB 181655Z AUTO 06014KT 10SM FEW040 26/20 A3015 RMK A01
KGHB 181635Z AUTO 06012KT 10SM FEW030 FEW039 26/19 A3016 RMK A01
KGHB 181615Z AUTO 06012KT 10SM FEW028 BKN033 BKN040 26/20 A3015 RMK A01
KGHB 181555Z AUTO 05016KT 10SM FEW025 SCT032 26/21 A3015 RMK A01
KGHB 181535Z AUTO 06016G21KT 10SM SCT031 26/21 A3015 RMK A01
KGHB 181515Z AUTO 06016KT 10SM FEW030 FEW034 FEW042 26/21 A3015 RMK A01
KGHB 181455Z AUTO 05018KT 10SM FEW033 SCT041 25/22 A3015 RMK A01
KGHB 181435Z AUTO 05020KT 10SM FEW020 SCT026 SCT032 25/22 A3015 RMK A01
KGHB 181415Z AUTO 05020KT 10SM FEW020 SCT026 25/22 A3014 RMK A01
KGHB 181355Z AUTO 05019KT 10SM CLR 26/21 A3013 RMK A01
KGHB 181335Z AUTO 06014KT 10SM FEW026 SCT034 26/21 A3013 RMK A01
KGHB 181315Z AUTO 05015KT 10SM SCT026 BKN034 26/21 A3012 RMK A01
KGHB 181255Z AUTO 05018KT 10SM FEW028 FEW034 FEW043 26/21 A3011 RMK A01
KGHB 181235Z AUTO 05016KT 10SM CLR 26/21 A3011 RMK A01
KGHB 181215Z AUTO 05017KT 10SM FEW025 26/21 A3011 RMK A01
KGHB 181155Z AUTO 04016KT 10SM BKN025 26/21 A3011 RMK A01
KGHB 181135Z AUTO 04014KT 10SM BKN025 BKN045 26/21 A3011 RMK A01
KGHB 181115Z AUTO 04014KT 10SM SCT025 BKN030 BKN044 25/21 A3010 RMK A01
KGHB 181055Z AUTO 06012KT 10SM SCT025 SCT031 BKN037 25/21 A3010 RMK A01
KGHB 181035Z AUTO 05013KT 10SM FEW026 SCT037 25/21 A3010 RMK A01
KGHB 181015Z AUTO 05014KT 10SM BKN026 BKN035 BKN041 25/21 A3010 RMK A01
KGHB 180955Z AUTO 05013KT 10SM BKN027 OVC034 25/21 A3010 RMK A01
KGHB 180935Z AUTO 06014KT 10SM FEW022 BKN027 BKN032 25/21 A3010 RMK A01
KGHB 180915Z AUTO 05012KT 10SM FEW031 FEW041 25/21 A3009 RMK A01
KGHB 180855Z AUTO 06011KT 10SM FEW042 25/20 A3010 RMK A01
KGHB 180835Z AUTO 07010KT 10SM FEW042 25/20 A3010 RMK A01
KGHB 180815Z AUTO 07010KT 10SM FEW029 FEW035 FEW045 25/20 A3010 RMK A01
KGHB 180755Z AUTO 07010KT 10SM FEW028 SCT034 SCT041 25/20 A3011 RMK A01
KGHB 180735Z AUTO 07010G16KT 10SM BKN030 OVC041 25/19 A3011 RMK A01
KGHB 180715Z AUTO 07008KT 10SM SCT030 OVC040 25/19 A3011 RMK A01
KGHB 180655Z AUTO 07010KT 10SM SCT029 OVC038 25/19 A3012 RMK A01
KGHB 180635Z AUTO 07009KT 10SM SCT029 OVC038 25/18 A3012 RMK A01
KGHB 180615Z AUTO 06010KT 10SM OVC036 25/17 A3012 RMK A01
KGHB 180555Z AUTO 06013KT 10SM OVC036 25/17 A3013 RMK A01
KGHB 180535Z AUTO 06012G18KT 10SM OVC035 25/17 A3013 RMK A01
KGHB 180515Z AUTO 06015KT 10SM OVC033 25/18 A3013 RMK A01
KGHB 180455Z AUTO 06013KT 10SM OVC034 25/18 A3014 RMK A01
KGHB 180435Z AUTO 07013G19KT 10SM SCT030 OVC035 25/18 A3014 RMK A01
KGHB 180415Z AUTO 06014KT 10SM OVC033 25/18 A3014 RMK A01
KGHB 180355Z AUTO 07013G20KT 10SM OVC033 25/18 A3015 RMK A01
KGHB 180335Z AUTO 06015G22KT 10SM OVC032 25/18 A3015 RMK A01
KGHB 180315Z AUTO 06017KT 10SM OVC031 24/17 A3015 RMK A01
KGHB 180255Z AUTO 06016G21KT 10SM OVC030 24/18 A3015 RMK A01
KGHB 180235Z AUTO 06017KT 10SM OVC029 24/17 A3015 RMK A01
KGHB 180215Z AUTO 06017G23KT 10SM OVC029 24/18 A3014 RMK A01
KGHB 180155Z AUTO 05017G23KT 10SM OVC027 23/18 A3014 RMK A01
KGHB 180135Z AUTO 06019KT 10SM OVC026 23/18 A3014 RMK A01
KGHB 180115Z AUTO 05018KT 10SM OVC026 23/17 A3013 RMK A01
KGHB 180055Z AUTO 06017KT 10SM OVC025 23/17 A3013 RMK A01
KGHB 180035Z AUTO 05017G23KT 10SM OVC025 23/17 A3012 RMK A01
KGHB 180015Z AUTO 06016G22KT 10SM BKN026 23/17 A3012 RMK A01
KGHB 172355Z AUTO 06019G24KT 10SM FEW027 23/17 A3012 RMK A01
KGHB 172335Z AUTO 05019KT 10SM CLR 23/16 A3012 RMK A01
KGHB 172315Z AUTO 06017G24KT 10SM CLR 23/16 A3011 RMK A01
KGHB 172255Z AUTO 05016KT 10SM FEW027 23/16 A3011 RMK A01
KGHB 172235Z AUTO 04018KT 10SM SCT027 23/17 A3010 RMK A01
KGHB 172215Z AUTO 05017KT 10SM FEW026 23/17 A3011 RMK A01
KGHB 172155Z AUTO 05019KT 10SM SCT025 23/17 A3011 RMK A01
KGHB 172135Z AUTO 04018KT 10SM BKN026 23/17 A3011 RMK A01
KGHB 172115Z AUTO 04016G21KT 10SM BKN026 22/17 A3011 RMK A01
KGHB 172055Z AUTO 04016KT 10SM FEW025 22/17 A3011 RMK A01
KGHB 172035Z AUTO 04015KT 10SM FEW026 22/17 A3012 RMK A01
KGHB 172015Z AUTO 04015KT 10SM BKN026 22/16 A3012 RMK A01
KGHB 171955Z AUTO 04015KT 10SM BKN025 22/17 A3012 RMK A01
KGHB 171935Z AUTO 03016KT 10SM BKN025 22/17 A3013 RMK A01
KGHB 171915Z AUTO 03013KT 10SM BKN026 22/17 A3014 RMK A01